createdAt,value
2017-12-27T00:00:57.192Z,941.82
2017-12-27T00:01:57.127Z,941.74
2017-12-27T00:02:57.059Z,941.70
2017-12-27T00:03:56.997Z,941.71
2017-12-27T00:04:56.932Z,941.73
2017-12-27T00:05:56.867Z,941.70
2017-12-27T00:06:56.807Z,941.70
2017-12-27T00:07:56.738Z,941.68
2017-12-27T00:08:56.678Z,941.59
2017-12-27T00:09:56.613Z,941.59
2017-12-27T00:10:56.544Z,941.55
2017-12-27T00:11:56.478Z,941.50
2017-12-27T00:12:56.416Z,941.46
2017-12-27T00:13:56.349Z,941.44
2017-12-27T00:14:56.283Z,941.41
2017-12-27T00:15:56.221Z,941.33
2017-12-27T00:16:56.155Z,941.30
2017-12-27T00:17:56.094Z,941.29
2017-12-27T00:18:56.028Z,941.26
2017-12-27T00:19:55.961Z,941.26
2017-12-27T00:20:55.898Z,941.24
2017-12-27T00:21:55.832Z,941.22
2017-12-27T00:22:55.770Z,941.21
2017-12-27T00:23:55.703Z,941.17
2017-12-27T00:24:55.637Z,941.12
2017-12-27T00:25:55.574Z,941.07
2017-12-27T00:26:55.508Z,940.96
2017-12-27T00:27:55.442Z,940.90
2017-12-27T00:28:55.382Z,940.89
2017-12-27T00:29:55.320Z,940.91
2017-12-27T00:30:55.249Z,940.93
2017-12-27T00:31:55.187Z,940.88
2017-12-27T00:32:55.123Z,940.81
2017-12-27T00:33:55.056Z,940.77
2017-12-27T00:34:54.991Z,940.76
2017-12-27T00:35:54.926Z,940.73
2017-12-27T00:36:54.864Z,940.73
2017-12-27T00:37:54.798Z,940.72
2017-12-27T00:38:54.733Z,940.81
2017-12-27T00:39:54.669Z,940.85
2017-12-27T00:40:54.606Z,940.87
2017-12-27T00:41:54.542Z,940.83
2017-12-27T00:42:54.473Z,940.85
2017-12-27T00:43:54.411Z,940.80
2017-12-27T00:44:54.344Z,940.77
2017-12-27T00:45:54.280Z,940.71
2017-12-27T00:46:54.212Z,940.66
2017-12-27T00:47:54.149Z,940.60
2017-12-27T00:48:54.086Z,940.54
2017-12-27T00:49:54.019Z,940.52
2017-12-27T00:50:53.955Z,940.50
2017-12-27T00:51:53.888Z,940.42
2017-12-27T00:52:53.826Z,940.37
2017-12-27T00:53:53.758Z,940.36
2017-12-27T00:54:53.694Z,940.37
2017-12-27T00:55:53.631Z,940.38
2017-12-27T00:56:53.566Z,940.44
2017-12-27T00:57:53.501Z,940.41
2017-12-27T00:58:53.435Z,940.44
2017-12-27T00:59:53.370Z,940.41
2017-12-27T01:00:53.306Z,940.34
2017-12-27T01:01:53.240Z,940.22
2017-12-27T01:02:53.174Z,940.26
2017-12-27T01:03:53.109Z,940.20
2017-12-27T01:04:53.048Z,940.17
2017-12-27T01:05:52.981Z,940.18
2017-12-27T01:06:52.914Z,940.15
2017-12-27T01:07:52.849Z,940.16
2017-12-27T01:08:52.785Z,940.20
2017-12-27T01:09:52.720Z,940.11
2017-12-27T01:10:52.661Z,940.11
2017-12-27T01:11:52.590Z,940.16
2017-12-27T01:12:52.525Z,940.11
2017-12-27T01:13:52.460Z,940.15
2017-12-27T01:14:52.397Z,940.14
2017-12-27T01:15:52.328Z,940.08
2017-12-27T01:16:52.265Z,940.04
2017-12-27T01:17:52.199Z,940.01
2017-12-27T01:18:52.135Z,939.97
2017-12-27T01:19:52.070Z,939.87
2017-12-27T01:20:52.007Z,939.86
2017-12-27T01:21:51.939Z,939.85
2017-12-27T01:22:51.874Z,939.82
2017-12-27T01:23:51.811Z,939.78
2017-12-27T01:24:51.743Z,939.78
2017-12-27T01:25:51.681Z,939.77
2017-12-27T01:26:51.621Z,939.74
2017-12-27T01:27:51.549Z,939.68
2017-12-27T01:28:51.484Z,939.57
2017-12-27T01:29:51.423Z,939.53
2017-12-27T01:30:51.353Z,939.47
2017-12-27T01:31:51.289Z,939.48
2017-12-27T01:32:51.224Z,939.52
2017-12-27T01:33:51.159Z,939.46
2017-12-27T01:34:51.097Z,939.45
2017-12-27T01:35:51.029Z,939.39
2017-12-27T01:36:50.965Z,939.38
2017-12-27T01:37:50.898Z,939.31
2017-12-27T01:38:50.840Z,939.33
2017-12-27T01:39:50.767Z,939.26
2017-12-27T01:40:50.704Z,939.24
2017-12-27T01:41:50.643Z,939.21
2017-12-27T01:42:50.572Z,939.17
2017-12-27T01:43:50.509Z,939.13
2017-12-27T01:44:50.445Z,939.09
2017-12-27T01:45:50.376Z,939.08
2017-12-27T01:46:50.313Z,939.08
2017-12-27T01:47:50.251Z,939.07
2017-12-27T01:48:50.182Z,939.05
2017-12-27T01:49:50.115Z,939.08
2017-12-27T01:50:50.053Z,939.06
2017-12-27T01:51:49.988Z,939.09
2017-12-27T01:52:49.921Z,939.01
2017-12-27T01:53:49.856Z,938.97
2017-12-27T01:54:49.790Z,938.94
2017-12-27T01:55:49.725Z,938.92
2017-12-27T01:56:49.661Z,938.85
2017-12-27T01:57:49.595Z,938.82
2017-12-27T01:58:49.530Z,938.81
2017-12-27T01:59:49.463Z,938.78
2017-12-27T02:00:49.400Z,938.77
2017-12-27T02:01:49.336Z,938.82
2017-12-27T02:02:49.272Z,938.85
2017-12-27T02:03:49.206Z,938.78
2017-12-27T02:04:49.140Z,938.74
2017-12-27T02:05:49.071Z,938.74
2017-12-27T02:06:49.006Z,938.67
2017-12-27T02:07:48.943Z,938.60
2017-12-27T02:08:48.876Z,938.53
2017-12-27T02:09:48.810Z,938.56
2017-12-27T02:10:48.745Z,938.55
2017-12-27T02:11:48.683Z,938.55
2017-12-27T02:12:48.614Z,938.49
2017-12-27T02:13:48.551Z,938.44
2017-12-27T02:14:48.481Z,938.40
2017-12-27T02:15:48.419Z,938.42
2017-12-27T02:16:48.362Z,938.38
2017-12-27T02:17:48.289Z,938.35
2017-12-27T02:18:48.222Z,938.38
2017-12-27T02:19:48.160Z,938.30
2017-12-27T02:20:48.094Z,938.25
2017-12-27T02:21:48.027Z,938.18
2017-12-27T02:22:47.962Z,938.13
2017-12-27T02:23:47.896Z,938.10
2017-12-27T02:24:47.829Z,938.08
2017-12-27T02:25:47.764Z,938.08
2017-12-27T02:26:47.700Z,938.02
2017-12-27T02:27:47.633Z,938.02
2017-12-27T02:28:47.569Z,938.00
2017-12-27T02:29:47.503Z,937.99
2017-12-27T02:30:47.439Z,937.93
2017-12-27T02:31:47.384Z,937.93
2017-12-27T02:32:47.310Z,937.88
2017-12-27T02:33:47.242Z,937.84
2017-12-27T02:34:47.179Z,937.80
2017-12-27T02:35:47.111Z,937.86
2017-12-27T02:36:47.048Z,937.81
2017-12-27T02:37:46.980Z,937.78
2017-12-27T02:38:46.913Z,937.79
2017-12-27T02:39:46.850Z,937.66
2017-12-27T02:40:46.785Z,937.68
2017-12-27T02:41:46.718Z,937.59
2017-12-27T02:42:46.651Z,937.54
2017-12-27T02:43:46.586Z,937.54
2017-12-27T02:44:46.522Z,937.52
2017-12-27T02:45:46.460Z,937.53
2017-12-27T02:46:46.392Z,937.50
2017-12-27T02:47:46.325Z,937.50
2017-12-27T02:48:46.265Z,937.50
2017-12-27T02:49:46.198Z,937.49
2017-12-27T02:50:46.130Z,937.42
2017-12-27T02:51:46.067Z,937.32
2017-12-27T02:52:46.004Z,937.27
2017-12-27T02:53:45.934Z,937.19
2017-12-27T02:54:45.869Z,937.17
2017-12-27T02:55:45.805Z,937.15
2017-12-27T02:56:45.739Z,937.10
2017-12-27T02:57:45.675Z,937.05
2017-12-27T02:58:45.608Z,937.02
2017-12-27T02:59:45.543Z,936.99
2017-12-27T03:00:45.480Z,936.95
2017-12-27T03:01:45.414Z,936.92
2017-12-27T03:02:45.346Z,936.85
2017-12-27T03:03:45.281Z,936.88
2017-12-27T03:04:45.219Z,936.83
2017-12-27T03:05:45.154Z,936.80
2017-12-27T03:06:45.091Z,936.82
2017-12-27T03:07:45.021Z,936.78
2017-12-27T03:08:44.957Z,936.80
2017-12-27T03:09:44.891Z,936.75
2017-12-27T03:10:44.825Z,936.74
2017-12-27T03:11:44.760Z,936.77
2017-12-27T03:12:44.696Z,936.78
2017-12-27T03:13:44.632Z,936.72
2017-12-27T03:14:44.566Z,936.69
2017-12-27T03:15:44.501Z,936.59
2017-12-27T03:16:44.436Z,936.60
2017-12-27T03:17:44.372Z,936.56
2017-12-27T03:18:44.304Z,936.44
2017-12-27T03:19:44.240Z,936.39
2017-12-27T03:20:44.174Z,936.33
2017-12-27T03:21:44.111Z,936.28
2017-12-27T03:22:44.047Z,936.24
2017-12-27T03:23:43.979Z,936.21
2017-12-27T03:24:43.909Z,936.20
2017-12-27T03:25:43.848Z,936.19
2017-12-27T03:26:43.785Z,936.17
2017-12-27T03:27:43.717Z,936.22
2017-12-27T03:28:43.652Z,936.15
2017-12-27T03:29:43.588Z,936.14
2017-12-27T03:30:43.522Z,936.09
2017-12-27T03:31:43.460Z,936.03
2017-12-27T03:32:43.390Z,936.06
2017-12-27T03:33:43.328Z,936.03
2017-12-27T03:34:43.258Z,936.02
2017-12-27T03:35:43.195Z,936.00
2017-12-27T03:36:43.131Z,936.02
2017-12-27T03:37:43.064Z,936.00
2017-12-27T03:38:43.000Z,935.97
2017-12-27T03:39:42.932Z,935.95
2017-12-27T03:40:42.867Z,935.98
2017-12-27T03:41:42.803Z,935.95
2017-12-27T03:42:42.738Z,935.92
2017-12-27T03:43:42.672Z,935.88
2017-12-27T03:44:42.607Z,935.83
2017-12-27T03:45:42.541Z,935.78
2017-12-27T03:46:42.477Z,935.73
2017-12-27T03:47:42.411Z,935.67
2017-12-27T03:48:42.346Z,935.63
2017-12-27T03:49:42.279Z,935.58
2017-12-27T03:50:42.216Z,935.57
2017-12-27T03:51:42.154Z,935.51
2017-12-27T03:52:42.084Z,935.44
2017-12-27T03:53:42.019Z,935.36
2017-12-27T03:54:41.954Z,935.29
2017-12-27T03:55:41.889Z,935.25
2017-12-27T03:56:41.825Z,935.27
2017-12-27T03:57:41.760Z,935.18
2017-12-27T03:58:41.693Z,935.17
2017-12-27T03:59:41.629Z,935.13
2017-12-27T04:00:41.563Z,935.16
2017-12-27T04:01:41.502Z,935.10
2017-12-27T04:02:41.430Z,935.10
2017-12-27T04:03:41.366Z,935.10
2017-12-27T04:04:41.304Z,935.05
2017-12-27T04:05:41.239Z,935.02
2017-12-27T04:06:41.170Z,935.00
2017-12-27T04:07:41.104Z,934.96
2017-12-27T04:08:41.043Z,934.92
2017-12-27T04:09:40.977Z,934.91
2017-12-27T04:10:40.911Z,934.97
2017-12-27T04:11:40.848Z,934.93
2017-12-27T04:12:40.779Z,934.94
2017-12-27T04:13:40.715Z,935.00
2017-12-27T04:14:40.651Z,934.98
2017-12-27T04:15:40.584Z,935.01
2017-12-27T04:16:40.518Z,934.95
2017-12-27T04:17:40.455Z,934.98
2017-12-27T04:18:40.389Z,934.99
2017-12-27T04:19:40.327Z,935.06
2017-12-27T04:20:40.259Z,935.06
2017-12-27T04:21:40.196Z,935.04
2017-12-27T04:22:40.129Z,935.01
2017-12-27T04:23:40.067Z,934.98
2017-12-27T04:24:40.000Z,934.94
2017-12-27T04:25:39.933Z,934.91
2017-12-27T04:26:39.868Z,934.90
2017-12-27T04:27:39.804Z,934.96
2017-12-27T04:28:39.738Z,934.98
2017-12-27T04:29:39.675Z,935.00
2017-12-27T04:30:39.608Z,935.00
2017-12-27T04:31:39.544Z,935.03
2017-12-27T04:32:39.480Z,935.02
2017-12-27T04:33:39.416Z,934.99
2017-12-27T04:34:39.346Z,934.96
2017-12-27T04:35:39.282Z,934.91
2017-12-27T04:36:39.217Z,934.85
2017-12-27T04:37:39.152Z,934.82
2017-12-27T04:38:39.085Z,934.78
2017-12-27T04:39:39.021Z,934.77
2017-12-27T04:40:38.957Z,934.77
2017-12-27T04:41:38.892Z,934.80
2017-12-27T04:42:38.828Z,934.88
2017-12-27T04:43:38.762Z,934.79
2017-12-27T04:44:38.696Z,934.81
2017-12-27T04:45:38.630Z,934.82
2017-12-27T04:46:38.568Z,934.82
2017-12-27T04:47:38.500Z,934.85
2017-12-27T04:48:38.437Z,934.83
2017-12-27T04:49:38.368Z,934.87
2017-12-27T04:50:38.307Z,934.90
2017-12-27T04:51:38.239Z,934.93
2017-12-27T04:52:38.175Z,934.93
2017-12-27T04:53:38.113Z,934.94
2017-12-27T04:54:38.043Z,934.91
2017-12-27T04:55:37.979Z,934.91
2017-12-27T04:56:37.914Z,934.91
2017-12-27T04:57:37.849Z,934.92
2017-12-27T04:58:37.783Z,934.95
2017-12-27T04:59:37.720Z,934.96
2017-12-27T05:00:37.655Z,935.03
2017-12-27T05:01:37.592Z,935.07
2017-12-27T05:02:37.523Z,935.13
2017-12-27T05:03:37.458Z,935.15
2017-12-27T05:04:37.392Z,935.16
2017-12-27T05:05:37.328Z,935.16
2017-12-27T05:06:37.262Z,935.21
2017-12-27T05:07:37.198Z,935.22
2017-12-27T05:08:37.131Z,935.17
2017-12-27T05:09:37.067Z,935.21
2017-12-27T05:10:37.000Z,935.18
2017-12-27T05:11:36.935Z,935.17
2017-12-27T05:12:36.869Z,935.13
2017-12-27T05:13:36.806Z,935.08
2017-12-27T05:14:36.739Z,935.05
2017-12-27T05:15:36.675Z,935.11
2017-12-27T05:16:36.614Z,935.07
2017-12-27T05:17:36.549Z,935.03
2017-12-27T05:18:36.482Z,934.97
2017-12-27T05:19:36.417Z,934.89
2017-12-27T05:20:36.349Z,934.86
2017-12-27T05:21:36.282Z,934.83
2017-12-27T05:22:36.217Z,934.83
2017-12-27T05:23:36.153Z,934.77
2017-12-27T05:24:36.087Z,934.83
2017-12-27T05:25:36.035Z,934.78
2017-12-27T05:26:35.957Z,934.79
2017-12-27T05:27:35.890Z,934.83
2017-12-27T05:28:35.826Z,934.83
2017-12-27T05:29:35.762Z,934.82
2017-12-27T05:30:35.696Z,934.82
2017-12-27T05:31:35.630Z,934.82
2017-12-27T05:32:35.566Z,934.81
2017-12-27T05:33:35.505Z,934.89
2017-12-27T05:34:35.439Z,934.81
2017-12-27T05:35:35.373Z,934.80
2017-12-27T05:36:35.305Z,934.82
2017-12-27T05:37:35.243Z,934.86
2017-12-27T05:38:35.180Z,934.85
2017-12-27T05:39:35.114Z,934.90
2017-12-27T05:40:35.047Z,934.94
2017-12-27T05:41:34.984Z,934.92
2017-12-27T05:42:34.920Z,934.93
2017-12-27T05:43:34.853Z,934.97
2017-12-27T05:44:34.786Z,935.00
2017-12-27T05:45:34.723Z,935.03
2017-12-27T05:46:34.656Z,935.03
2017-12-27T05:47:34.592Z,935.10
2017-12-27T05:48:34.529Z,935.14
2017-12-27T05:49:34.463Z,935.18
2017-12-27T05:50:34.396Z,935.22
2017-12-27T05:51:34.333Z,935.21
2017-12-27T05:52:34.269Z,935.21
2017-12-27T05:53:34.203Z,935.21
2017-12-27T05:54:34.137Z,935.21
2017-12-27T05:55:34.075Z,935.28
2017-12-27T05:56:34.009Z,935.27
2017-12-27T05:57:33.944Z,935.33
2017-12-27T05:58:33.878Z,935.30
2017-12-27T05:59:33.815Z,935.32
2017-12-27T06:00:33.749Z,935.35
2017-12-27T06:01:33.684Z,935.34
2017-12-27T06:02:33.618Z,935.36
2017-12-27T06:03:33.556Z,935.41
2017-12-27T06:04:33.490Z,935.40
2017-12-27T06:05:33.424Z,935.41
2017-12-27T06:06:33.356Z,935.42
2017-12-27T06:07:33.294Z,935.42
2017-12-27T06:08:33.230Z,935.40
2017-12-27T06:09:33.163Z,935.37
2017-12-27T06:10:33.097Z,935.29
2017-12-27T06:11:33.033Z,935.34
2017-12-27T06:12:32.969Z,935.41
2017-12-27T06:13:32.904Z,935.40
2017-12-27T06:14:32.837Z,935.45
2017-12-27T06:15:32.774Z,935.46
2017-12-27T06:16:32.711Z,935.40
2017-12-27T06:17:32.643Z,935.41
2017-12-27T06:18:32.577Z,935.43
2017-12-27T06:19:32.512Z,935.45
2017-12-27T06:20:32.451Z,935.42
2017-12-27T06:21:32.384Z,935.36
2017-12-27T06:22:32.317Z,935.36
2017-12-27T06:23:32.252Z,935.35
2017-12-27T06:24:32.188Z,935.36
2017-12-27T06:25:32.125Z,935.33
2017-12-27T06:26:32.055Z,935.30
2017-12-27T06:27:31.993Z,935.20
2017-12-27T06:28:31.926Z,935.18
2017-12-27T06:29:31.861Z,935.13
2017-12-27T06:30:31.797Z,935.10
2017-12-27T06:31:31.731Z,935.09
2017-12-27T06:32:31.668Z,935.08
2017-12-27T06:33:31.601Z,935.02
2017-12-27T06:34:31.537Z,934.91
2017-12-27T06:35:31.472Z,934.89
2017-12-27T06:36:31.411Z,934.83
2017-12-27T06:37:31.344Z,934.82
2017-12-27T06:38:31.276Z,934.82
2017-12-27T06:39:31.212Z,934.81
2017-12-27T06:40:31.149Z,934.76
2017-12-27T06:41:31.086Z,934.70
2017-12-27T06:42:31.020Z,934.69
2017-12-27T06:43:30.954Z,934.71
2017-12-27T06:44:30.892Z,934.71
2017-12-27T06:45:30.824Z,934.78
2017-12-27T06:46:30.759Z,934.73
2017-12-27T06:47:30.724Z,934.69
2017-12-27T06:48:30.629Z,934.62
2017-12-27T06:49:30.565Z,934.59
2017-12-27T06:50:30.500Z,934.64
2017-12-27T06:51:30.434Z,934.71
2017-12-27T06:52:30.370Z,934.69
2017-12-27T06:53:30.307Z,934.72
2017-12-27T06:54:30.241Z,934.71
2017-12-27T06:55:30.178Z,934.77
2017-12-27T06:56:30.113Z,934.79
2017-12-27T06:57:30.047Z,934.77
2017-12-27T06:58:29.983Z,934.76
2017-12-27T06:59:29.919Z,934.82
2017-12-27T07:00:29.860Z,934.79
2017-12-27T07:01:29.794Z,934.80
2017-12-27T07:02:29.724Z,934.74
2017-12-27T07:03:29.660Z,934.76
2017-12-27T07:04:29.595Z,934.79
2017-12-27T07:05:29.528Z,934.75
2017-12-27T07:06:29.464Z,934.74
2017-12-27T07:07:29.402Z,934.67
2017-12-27T07:08:29.338Z,934.62
2017-12-27T07:09:29.271Z,934.64
2017-12-27T07:10:29.210Z,934.63
2017-12-27T07:11:29.143Z,934.58
2017-12-27T07:12:29.078Z,934.50
2017-12-27T07:13:29.008Z,934.45
2017-12-27T07:14:28.947Z,934.33
2017-12-27T07:15:28.882Z,934.32
2017-12-27T07:16:28.820Z,934.27
2017-12-27T07:17:28.758Z,934.29
2017-12-27T07:18:28.690Z,934.33
2017-12-27T07:19:28.624Z,934.36
2017-12-27T07:20:28.560Z,934.35
2017-12-27T07:21:28.530Z,934.30
2017-12-27T07:22:28.434Z,934.30
2017-12-27T07:23:28.365Z,934.28
2017-12-27T07:24:28.303Z,934.24
2017-12-27T07:25:28.238Z,934.20
2017-12-27T07:26:28.173Z,934.14
2017-12-27T07:27:28.107Z,934.17
2017-12-27T07:28:28.044Z,934.19
2017-12-27T07:29:27.980Z,934.25
2017-12-27T07:30:27.915Z,934.31
2017-12-27T07:31:27.849Z,934.29
2017-12-27T07:32:27.784Z,934.30
2017-12-27T07:33:27.719Z,934.22
2017-12-27T07:34:27.656Z,934.20
2017-12-27T07:35:27.594Z,934.18
2017-12-27T07:36:27.527Z,934.24
2017-12-27T07:37:27.462Z,934.21
2017-12-27T07:38:27.397Z,934.22
2017-12-27T07:39:27.333Z,934.10
2017-12-27T07:40:27.271Z,934.08
2017-12-27T07:41:27.205Z,934.09
2017-12-27T07:42:27.141Z,934.05
2017-12-27T07:43:27.079Z,933.99
2017-12-27T07:44:27.017Z,933.93
2017-12-27T07:45:26.945Z,933.86
2017-12-27T07:46:26.880Z,933.86
2017-12-27T07:47:26.816Z,933.82
2017-12-27T07:48:26.780Z,933.85
2017-12-27T07:49:26.688Z,933.82
2017-12-27T07:50:26.627Z,933.82
2017-12-27T07:51:26.560Z,933.82
2017-12-27T07:52:26.495Z,933.83
2017-12-27T07:53:26.432Z,933.92
2017-12-27T07:54:26.375Z,933.91
2017-12-27T07:55:26.303Z,933.89
2017-12-27T07:56:26.238Z,933.94
2017-12-27T07:57:26.174Z,934.00
2017-12-27T07:58:26.111Z,933.98
2017-12-27T07:59:26.044Z,933.97
2017-12-27T08:00:25.980Z,933.99
2017-12-27T08:01:25.914Z,933.97
2017-12-27T08:02:25.850Z,933.95
2017-12-27T08:03:25.788Z,933.97
2017-12-27T08:04:25.721Z,933.97
2017-12-27T08:05:25.659Z,934.01
2017-12-27T08:06:25.592Z,933.97
2017-12-27T08:07:25.528Z,933.93
2017-12-27T08:08:25.465Z,933.95
2017-12-27T08:09:25.399Z,933.93
2017-12-27T08:10:25.334Z,933.91
2017-12-27T08:11:25.274Z,933.91
2017-12-27T08:12:25.207Z,933.94
2017-12-27T08:13:25.142Z,933.94
2017-12-27T08:14:25.084Z,933.92
2017-12-27T08:15:25.018Z,933.89
2017-12-27T08:16:24.951Z,933.86
2017-12-27T08:17:24.884Z,933.88
2017-12-27T08:18:24.821Z,933.88
2017-12-27T08:19:24.755Z,933.85
2017-12-27T08:20:24.692Z,933.78
2017-12-27T08:21:24.626Z,933.77
2017-12-27T08:22:24.563Z,933.73
2017-12-27T08:23:24.501Z,933.68
2017-12-27T08:24:24.435Z,933.71
2017-12-27T08:25:24.373Z,933.79
2017-12-27T08:26:24.306Z,933.78
2017-12-27T08:27:24.244Z,933.75
2017-12-27T08:28:24.179Z,933.76
2017-12-27T08:29:24.114Z,933.75
2017-12-27T08:30:24.049Z,933.73
2017-12-27T08:31:23.988Z,933.74
2017-12-27T08:32:23.922Z,933.71
2017-12-27T08:33:23.857Z,933.70
2017-12-27T08:34:23.793Z,933.66
2017-12-27T08:35:23.728Z,933.59
2017-12-27T08:36:23.664Z,933.54
2017-12-27T08:37:23.603Z,933.53
2017-12-27T08:38:23.553Z,933.46
2017-12-27T08:39:23.472Z,933.48
2017-12-27T08:40:23.410Z,933.44
2017-12-27T08:41:23.346Z,933.41
2017-12-27T08:42:23.280Z,933.34
2017-12-27T08:43:23.216Z,933.31
2017-12-27T08:44:23.152Z,933.28
2017-12-27T08:45:23.089Z,933.22
2017-12-27T08:46:23.024Z,933.24
2017-12-27T08:47:22.961Z,933.26
2017-12-27T08:48:22.900Z,933.29
2017-12-27T08:49:22.834Z,933.26
2017-12-27T08:50:22.772Z,933.26
2017-12-27T08:51:22.705Z,933.23
2017-12-27T08:52:22.641Z,933.23
2017-12-27T08:53:22.578Z,933.21
2017-12-27T08:54:22.512Z,933.19
2017-12-27T08:55:22.449Z,933.27
2017-12-27T08:56:22.387Z,933.26
2017-12-27T08:57:22.320Z,933.28
2017-12-27T08:58:22.256Z,933.28
2017-12-27T08:59:22.196Z,933.26
2017-12-27T09:00:22.129Z,933.19
2017-12-27T09:01:22.066Z,933.04
2017-12-27T09:02:22.001Z,933.02
2017-12-27T09:03:21.939Z,932.97
2017-12-27T09:04:21.876Z,932.92
2017-12-27T09:05:21.810Z,932.90
2017-12-27T09:06:21.748Z,932.85
2017-12-27T09:07:21.683Z,932.92
2017-12-27T09:08:21.619Z,932.93
2017-12-27T09:09:21.555Z,932.94
2017-12-27T09:10:21.541Z,932.95
2017-12-27T09:11:21.439Z,932.98
2017-12-27T09:12:21.363Z,932.94
2017-12-27T09:13:21.300Z,932.95
2017-12-27T09:14:21.236Z,932.97
2017-12-27T09:15:21.173Z,932.98
2017-12-27T09:16:21.115Z,932.96
2017-12-27T09:17:21.044Z,932.89
2017-12-27T09:18:20.982Z,932.89
2017-12-27T09:19:20.924Z,932.84
2017-12-27T09:20:20.852Z,932.78
2017-12-27T09:21:20.791Z,932.77
2017-12-27T09:22:20.728Z,932.73
2017-12-27T09:23:20.662Z,932.75
2017-12-27T09:24:20.598Z,932.75
2017-12-27T09:25:20.534Z,932.76
2017-12-27T09:26:20.471Z,932.77
2017-12-27T09:27:20.409Z,932.80
2017-12-27T09:28:20.345Z,932.80
2017-12-27T09:29:20.287Z,932.75
2017-12-27T09:30:20.215Z,932.78
2017-12-27T09:31:20.151Z,932.72
2017-12-27T09:32:20.094Z,932.76
2017-12-27T09:33:20.027Z,932.80
2017-12-27T09:34:19.962Z,932.84
2017-12-27T09:35:19.899Z,932.89
2017-12-27T09:36:19.836Z,932.85
2017-12-27T09:37:19.769Z,932.85
2017-12-27T09:38:19.706Z,932.79
2017-12-27T09:39:19.643Z,932.80
2017-12-27T09:40:19.579Z,932.80
2017-12-27T09:41:19.515Z,932.75
2017-12-27T09:42:19.450Z,932.74
2017-12-27T09:43:19.388Z,932.68
2017-12-27T09:44:19.325Z,932.68
2017-12-27T09:45:19.268Z,932.68
2017-12-27T09:46:19.196Z,932.72
2017-12-27T09:47:19.132Z,932.72
2017-12-27T09:48:19.071Z,932.72
2017-12-27T09:49:19.007Z,932.75
2017-12-27T09:50:18.941Z,932.74
2017-12-27T09:51:18.880Z,932.74
2017-12-27T09:52:18.822Z,932.74
2017-12-27T09:53:18.750Z,932.74
2017-12-27T09:54:18.688Z,932.75
2017-12-27T09:55:18.624Z,932.74
2017-12-27T09:56:18.566Z,932.78
2017-12-27T09:57:18.500Z,932.81
2017-12-27T09:58:18.433Z,932.88
2017-12-27T09:59:18.374Z,932.92
2017-12-27T10:00:18.305Z,932.90
2017-12-27T10:01:18.247Z,932.88
2017-12-27T10:02:18.182Z,932.82
2017-12-27T10:03:18.115Z,932.80
2017-12-27T10:04:18.052Z,932.73
2017-12-27T10:05:17.989Z,932.73
2017-12-27T10:06:17.926Z,932.71
2017-12-27T10:07:17.863Z,932.65
2017-12-27T10:08:17.798Z,932.67
2017-12-27T10:09:17.737Z,932.58
2017-12-27T10:10:17.670Z,932.61
2017-12-27T10:11:17.607Z,932.61
2017-12-27T10:12:17.542Z,932.54
2017-12-27T10:13:17.480Z,932.50
2017-12-27T10:14:17.418Z,932.51
2017-12-27T10:15:17.352Z,932.50
2017-12-27T10:16:17.289Z,932.44
2017-12-27T10:17:17.224Z,932.42
2017-12-27T10:18:17.161Z,932.32
2017-12-27T10:19:17.101Z,932.33
2017-12-27T10:20:17.036Z,932.34
2017-12-27T10:21:16.970Z,932.29
2017-12-27T10:22:16.907Z,932.31
2017-12-27T10:23:16.846Z,932.23
2017-12-27T10:24:16.782Z,932.21
2017-12-27T10:25:16.716Z,932.24
2017-12-27T10:26:16.652Z,932.19
2017-12-27T10:27:16.590Z,932.14
2017-12-27T10:28:16.529Z,932.09
2017-12-27T10:29:16.464Z,932.11
2017-12-27T10:30:16.401Z,932.09
2017-12-27T10:31:16.336Z,932.11
2017-12-27T10:32:16.275Z,932.14
2017-12-27T10:33:16.230Z,932.17
2017-12-27T10:34:16.144Z,932.13
2017-12-27T10:35:16.082Z,932.15
2017-12-27T10:36:16.021Z,932.14
2017-12-27T10:37:15.954Z,932.11
2017-12-27T10:38:15.892Z,932.12
2017-12-27T10:39:15.828Z,932.08
2017-12-27T10:40:15.765Z,932.04
2017-12-27T10:41:15.705Z,932.03
2017-12-27T10:42:15.639Z,932.07
2017-12-27T10:43:15.574Z,932.06
2017-12-27T10:44:15.509Z,932.03
2017-12-27T10:45:15.449Z,932.01
2017-12-27T10:46:15.383Z,931.92
2017-12-27T10:47:15.321Z,931.89
2017-12-27T10:48:15.260Z,931.88
2017-12-27T10:49:15.194Z,931.91
2017-12-27T10:50:15.134Z,931.90
2017-12-27T10:51:15.070Z,931.89
2017-12-27T10:52:15.006Z,931.90
2017-12-27T10:53:14.944Z,931.88
2017-12-27T10:54:14.877Z,931.91
2017-12-27T10:55:14.815Z,931.88
2017-12-27T10:56:14.752Z,931.88
2017-12-27T10:57:14.688Z,931.85
2017-12-27T10:58:14.624Z,931.81
2017-12-27T10:59:14.564Z,931.80
2017-12-27T11:00:14.500Z,931.82
2017-12-27T11:01:14.438Z,931.84
2017-12-27T11:02:14.375Z,931.87
2017-12-27T11:03:14.311Z,931.86
2017-12-27T11:04:14.247Z,931.84
2017-12-27T11:05:14.184Z,931.86
2017-12-27T11:06:14.122Z,931.88
2017-12-27T11:07:14.059Z,931.94
2017-12-27T11:08:13.994Z,931.88
2017-12-27T11:09:13.932Z,931.88
2017-12-27T11:10:13.875Z,931.87
2017-12-27T11:11:13.806Z,931.87
2017-12-27T11:12:13.744Z,931.82
2017-12-27T11:13:13.681Z,931.78
2017-12-27T11:14:13.617Z,931.73
2017-12-27T11:15:13.554Z,931.74
2017-12-27T11:16:13.489Z,931.76
2017-12-27T11:17:13.428Z,931.78
2017-12-27T11:18:13.366Z,931.83
2017-12-27T11:19:13.299Z,931.80
2017-12-27T11:20:13.236Z,931.78
2017-12-27T11:21:13.174Z,931.79
2017-12-27T11:22:13.119Z,931.78
2017-12-27T11:23:13.050Z,931.73
2017-12-27T11:24:12.986Z,931.77
2017-12-27T11:25:12.922Z,931.77
2017-12-27T11:26:12.856Z,931.81
2017-12-27T11:27:12.795Z,931.84
2017-12-27T11:28:12.732Z,931.84
2017-12-27T11:29:12.668Z,931.78
2017-12-27T11:30:12.607Z,931.80
2017-12-27T11:31:12.542Z,931.80
2017-12-27T11:32:12.479Z,931.75
2017-12-27T11:33:12.417Z,931.76
2017-12-27T11:34:12.352Z,931.80
2017-12-27T11:35:12.292Z,931.79
2017-12-27T11:36:12.227Z,931.81
2017-12-27T11:37:12.164Z,931.82
2017-12-27T11:38:12.099Z,931.77
2017-12-27T11:39:12.037Z,931.80
2017-12-27T11:40:11.974Z,931.78
2017-12-27T11:41:11.911Z,931.77
2017-12-27T11:42:11.848Z,931.77
2017-12-27T11:43:11.785Z,931.68
2017-12-27T11:44:11.722Z,931.73
2017-12-27T11:45:11.664Z,931.74
2017-12-27T11:46:11.595Z,931.68
2017-12-27T11:47:11.532Z,931.63
2017-12-27T11:48:11.471Z,931.61
2017-12-27T11:49:11.406Z,931.60
2017-12-27T11:50:11.348Z,931.60
2017-12-27T11:51:11.280Z,931.57
2017-12-27T11:52:11.219Z,931.60
2017-12-27T11:53:11.157Z,931.64
2017-12-27T11:54:11.092Z,931.66
2017-12-27T11:55:11.028Z,931.65
2017-12-27T11:56:10.967Z,931.71
2017-12-27T11:57:10.902Z,931.67
2017-12-27T11:58:10.841Z,931.67
2017-12-27T11:59:10.776Z,931.65
2017-12-27T12:00:10.714Z,931.70
2017-12-27T12:01:10.650Z,931.70
2017-12-27T12:02:10.584Z,931.77
2017-12-27T12:03:10.522Z,931.73
2017-12-27T12:04:10.458Z,931.75
2017-12-27T12:05:10.395Z,931.77
2017-12-27T12:06:10.333Z,931.74
2017-12-27T12:07:10.271Z,931.77
2017-12-27T12:08:10.205Z,931.75
2017-12-27T12:09:10.141Z,931.78
2017-12-27T12:10:10.078Z,931.77
2017-12-27T12:11:10.013Z,931.78
2017-12-27T12:12:09.950Z,931.81
2017-12-27T12:13:09.888Z,931.78
2017-12-27T12:14:09.824Z,931.79
2017-12-27T12:15:09.763Z,931.80
2017-12-27T12:16:09.698Z,931.76
2017-12-27T12:17:09.635Z,931.77
2017-12-27T12:18:09.570Z,931.71
2017-12-27T12:19:09.509Z,931.69
2017-12-27T12:20:09.445Z,931.72
2017-12-27T12:21:09.380Z,931.71
2017-12-27T12:22:09.316Z,931.71
2017-12-27T12:23:09.255Z,931.71
2017-12-27T12:24:09.194Z,931.67
2017-12-27T12:25:09.129Z,931.66
2017-12-27T12:26:09.064Z,931.62
2017-12-27T12:27:09.000Z,931.55
2017-12-27T12:28:08.936Z,931.54